Terminal Aerodrome Forecast
Issued by NWS Amarillo, TX

Home | Current Version | Previous Version | Text Only | Print | Product List | Glossary On
Versions: 1 2 3 4 5 6 7 8 9 10 11 12 13 14 15 16 17 18 19
000
FTUS44 KAMA 310520
TAFDHT
TAF
KDHT 310520Z 3106/0106 16010KT P6SM SCT040 OVC120
     FM311000 35010KT P6SM SCT040 OVC120
     FM311600 06013KT P6SM OVC040
     FM010100 04010KT P6SM OVC040=

USA.gov is the U.S. government's official web portal to all federal, state and local government web resources and services.